Bei Facebook empfehlenBei Twitter postenGoogle plusPinterest

Das Wetter im Erzgebirge am 26.02.2017

Wetter und Klima am 26.02.2017 Holzhau im Erzgebirge (630m ü.NN)
Letzte gemessene Temperatur und Uhrzeit der Messung23:45:00 Uhr1.90 °C
Temperatur (Maximum / Höchstwert) und Uhrzeit der Messung15:15:00 Uhr10.70 °C
Temperatur (Minimum / Tiefstwert) und Uhrzeit der Messung20:45:00-0.70 °C
Errechneter Absolutwert der Temperaturschwankungen zwischen Tmin und Tmax des Tages11.40 K
Errechnete Tagesmitteltemperatur4.53333 °C
Gesamt - Niederschlag des Tages (in flüssiger Form)0.00 Liter / m²
Luftdruck (Maximum / Höchstwert) und Zeitpunkt der Messung00:15:00 Uhr1013.10 hPa
Luftdruck (Minimum / Tiefstwert) und Zeitpunkt der Messung16:45:00 Uhr1008.60 hPa
Errechneter Absolutwert der Luftdruckschwankungen des Tages4.50 hPa
Höchste gemessene Windgeschwindigkeit und Uhrzeit der Messung02:45:00 Uhr12.60 km/h
Errechnete Windhäufigkeit in Relation zu den Messwerten des Tages46.87500 %
Niedrigste Windkühle (Windchill) und Zeitpunkt der Messung02:45:00 Uhr-1.00 °C
Taupunkt (Maximum / Höchstwert) und Uhrzeit der Messung13:30:00 Uhr1.30 °C
Taupunkt (Minimum / Tiefstwert) und Uhrzeit der Messung20:30:00-5.00 °C
Anzahl der automatisch eingelesenen Messwerte 96

Detaillierte Wetter- und Klima- Messwerte für den 26.02.2017 in Holzhau im Erzgebirge (630m ü.NN)
ZeitTemperaturLuftdruckRel. LuftfeuchteWindWindrichtungWindchillTaupunktNiederschlag l/m²
23:45:001.90 °C1009.30 hPa76.00 %-1.90 °C 
23:30:002.00 °C1009.10 hPa76.00 %-1.80 °C 
23:15:002.10 °C1008.90 hPa76.00 %-1.70 °C 
23:00:001.80 °C1009.00 hPa76.00 %1.08 km/hOSO1.80 °C-2.00 °C 
22:45:001.80 °C1009.00 hPa76.00 %-2.00 °C 
22:30:001.60 °C1009.20 hPa77.00 %-2.00 °C 
22:15:001.10 °C1009.40 hPa77.00 %4.68 km/hOSO1.10 °C-2.50 °C 
22:00:000.60 °C1009.30 hPa78.00 %-2.80 °C 
21:45:000.40 °C1009.40 hPa77.00 %-3.10 °C 
21:30:000.30 °C1009.50 hPa77.00 %-3.20 °C 
21:15:00-0.10 °C1009.70 hPa77.00 %3.96 km/hOSO-0.10 °C-4.10 °C 
21:00:00-0.40 °C1009.70 hPa77.00 %-4.30 °C 
20:45:00-0.70 °C1009.80 hPa76.00 %-4.80 °C 
20:30:00-0.50 °C1009.80 hPa74.00 %-5.00 °C 
20:15:00-0.10 °C1009.80 hPa73.00 %-4.80 °C 
20:00:000.30 °C1009.70 hPa72.00 %1.08 km/hOSO0.30 °C-4.10 °C 
19:45:000.80 °C1009.80 hPa71.00 %-3.80 °C 
19:30:000.80 °C1009.80 hPa70.00 %2.52 km/hOSO0.80 °C-4.00 °C 
19:15:001.30 °C1009.70 hPa67.00 %-4.10 °C 
19:00:001.80 °C1009.40 hPa65.00 %-4.10 °C 
18:45:002.70 °C1009.30 hPa62.00 %-3.80 °C 
18:30:003.80 °C1009.20 hPa58.00 %-3.70 °C 
18:15:004.90 °C1009.00 hPa55.00 %-3.40 °C 
18:00:006.10 °C1008.90 hPa52.00 %-3.00 °C 
17:45:006.80 °C1009.00 hPa50.00 %-2.90 °C 
17:30:007.30 °C1008.80 hPa50.00 %1.44 km/hW7.30 °C-2.40 °C 
17:15:007.90 °C1008.90 hPa49.00 %3.60 km/hWSW7.90 °C-2.10 °C 
17:00:008.40 °C1008.90 hPa47.00 %5.40 km/hWNW7.80 °C-2.20 °C 
16:45:008.80 °C1008.60 hPa46.00 %8.28 km/hW7.50 °C-2.20 °C 
16:30:008.90 °C1008.80 hPa45.00 %-2.40 °C 
16:15:009.30 °C1008.80 hPa44.00 %-2.30 °C 
16:00:0010.20 °C1008.90 hPa42.00 %9.36 km/hNNW9.00 °C-2.10 °C 
15:45:0010.60 °C1008.70 hPa41.00 %2.88 km/hWSW10.60 °C-2.10 °C 
15:30:0010.60 °C1008.80 hPa43.00 %3.96 km/hWNW10.60 °C-1.40 °C 
15:15:0010.70 °C1008.70 hPa44.00 %2.16 km/hNW10.70 °C-1.00 °C 
15:00:0010.40 °C1008.60 hPa44.00 %-1.30 °C 
14:45:0010.30 °C1008.70 hPa46.00 %11.52 km/hWNW8.70 °C-0.80 °C 
14:30:0010.50 °C1008.70 hPa48.00 %7.20 km/hNW9.80 °C0.00 °C 
14:15:009.80 °C1008.90 hPa52.00 %9.00 km/hW8.60 °C0.40 °C 
14:00:009.30 °C1009.30 hPa52.00 %6.48 km/hWSW8.50 °C0.00 °C 
13:45:009.60 °C1009.30 hPa53.00 %9.72 km/hW8.20 °C0.50 °C 
13:30:009.60 °C1009.10 hPa56.00 %3.96 km/hW9.60 °C1.30 °C 
13:15:009.40 °C1009.30 hPa57.00 %3.24 km/hWNW9.40 °C1.30 °C 
13:00:009.00 °C1009.40 hPa57.00 %5.04 km/hW8.60 °C1.00 °C 
12:45:008.80 °C1009.40 hPa58.00 %6.84 km/hW7.90 °C1.00 °C 
12:30:008.90 °C1009.60 hPa54.00 %0.10 °C 
12:15:009.30 °C1009.70 hPa52.00 %3.24 km/hWNW9.30 °C0.00 °C 
12:00:009.60 °C1009.80 hPa53.00 %0.50 °C 
11:45:009.20 °C1009.90 hPa51.00 %-0.40 °C 
11:30:008.70 °C1010.30 hPa51.00 %1.80 km/hS8.70 °C-0.90 °C 
11:15:008.40 °C1010.30 hPa52.00 %4.32 km/hSSW8.40 °C-0.90 °C 
11:00:007.90 °C1010.40 hPa51.00 %-1.60 °C 
10:45:007.80 °C1010.60 hPa53.00 %-1.20 °C 
10:30:007.30 °C1010.50 hPa53.00 %-1.60 °C 
10:15:006.60 °C1010.30 hPa57.00 %-1.30 °C 
10:00:005.70 °C1010.40 hPa58.00 %2.52 km/hSW5.70 °C-1.90 °C 
09:45:004.90 °C1010.00 hPa60.00 %2.52 km/hONO4.90 °C-2.20 °C 
09:30:004.80 °C1010.30 hPa63.00 %-1.60 °C 
09:15:004.90 °C1010.20 hPa62.00 %-1.80 °C 
09:00:004.80 °C1010.60 hPa60.00 %-2.30 °C 
08:45:004.40 °C1010.60 hPa60.00 %-2.70 °C 
08:30:004.00 °C1010.50 hPa61.00 %-2.80 °C 
08:15:003.60 °C1010.60 hPa62.00 %6.48 km/hSW1.90 °C-3.00 °C 
08:00:003.50 °C1010.50 hPa62.00 %-3.10 °C 
07:45:003.30 °C1010.50 hPa62.00 %-3.30 °C 
07:30:003.30 °C1010.40 hPa62.00 %-3.30 °C 
07:15:003.20 °C1010.20 hPa62.00 %-3.40 °C 
07:00:003.00 °C1010.20 hPa62.00 %1.44 km/hSW3.00 °C-3.60 °C 
06:45:003.10 °C1010.20 hPa62.00 %-3.50 °C 
06:30:003.10 °C1010.30 hPa63.00 %-3.20 °C 
06:15:002.90 °C1010.40 hPa64.00 %-3.20 °C 
06:00:002.60 °C1010.60 hPa66.00 %-3.10 °C 
05:45:001.90 °C1010.50 hPa71.00 %-2.80 °C 
05:30:001.50 °C1010.60 hPa73.00 %-2.80 °C 
05:15:001.50 °C1010.70 hPa73.00 %-2.80 °C 
05:00:001.50 °C1010.90 hPa72.00 %-3.00 °C 
04:45:001.50 °C1011.20 hPa72.00 %5.40 km/hOSO-0.10 °C-3.00 °C 
04:30:001.60 °C1011.10 hPa71.00 %5.04 km/hSO0.20 °C-3.10 °C 
04:15:001.60 °C1011.10 hPa71.00 %-3.10 °C 
04:00:001.80 °C1011.30 hPa70.00 %3.60 km/hSO1.80 °C-3.10 °C 
03:45:001.90 °C1011.20 hPa69.00 %3.96 km/hSO1.90 °C-3.20 °C 
03:30:002.30 °C1011.40 hPa67.00 %4.32 km/hSO2.30 °C-3.20 °C 
03:15:002.60 °C1011.60 hPa65.00 %1.80 km/hSO2.60 °C-3.30 °C 
03:00:002.60 °C1011.60 hPa65.00 %3.60 km/hSSO2.60 °C-3.30 °C 
02:45:002.40 °C1011.70 hPa66.00 %12.60 km/hSSO-1.00 °C-3.30 °C 
02:30:002.40 °C1012.00 hPa66.00 %7.92 km/hSSW0.10 °C-3.30 °C 
02:15:002.40 °C1012.00 hPa66.00 %7.56 km/hSSW0.20 °C-3.30 °C 
02:00:002.40 °C1012.20 hPa66.00 %9.36 km/hSSO-0.30 °C-3.30 °C 
01:45:002.40 °C1012.40 hPa66.00 %-3.30 °C 
01:30:002.80 °C1012.40 hPa64.00 %-3.30 °C 
01:15:003.00 °C1012.40 hPa63.00 %1.44 km/hS3.00 °C-3.30 °C 
01:00:003.10 °C1012.30 hPa62.00 %1.80 km/hSSO3.10 °C-3.50 °C 
00:45:003.10 °C1012.70 hPa63.00 %1.80 km/hWSW3.10 °C-3.20 °C 
00:30:003.20 °C1012.70 hPa62.00 %1.44 km/hSSW3.20 °C-3.40 °C 
00:15:003.30 °C1013.10 hPa62.00 %1.80 km/hSSO3.30 °C-3.30 °C 
00:00:003.10 °C1013.00 hPa63.00 %-3.20 °C 

Permanenter Link zu dieser Seite: Wetter im Erzgebirge am 26.02.2017
Performance-Info: Die Erstellung der Seite / Statistik(en) / Tabelle(n) erforderte 5 Datenbankserver-Abfrage(n) und dauerte 106 Millisekunden. (Dieser Messwert ist von der Gesamt-Auslastung des Servers abhängig.)
Erzgebirge - Wetter | Erzgebirge - Wetter (Mobilgeräte) | Komplette Klimadatenbank